Flight Track Log - Related Links

Times and Time Zones

All times are in EDT time to prevent confusion due to time zone crossing. See the ERR859 flight status page for this flight to view local times or setup timezone preferences in your user account.


Time Position Orientation Groundspeed Altitude Reporting Facility
EDT Latitude Longitude Course Direction KTS MPH feet Rate Location/Type
Tue 11:32:36 PM 60.6000 -151.2000 47° Northeast 150 173 1,600  Level Anchorage Center
Tue 11:33:36 PM 60.6333 -151.1333 44° Northeast 160 184 3,500 1,686 Climbing Anchorage Center
Tue 11:34:37 PM 60.6667 -151.0667 44° Northeast 180 207 5,000 744 Climbing Anchorage Center
Tue 11:35:37 PM 60.7000 -150.9667 56° Northeast 220 253 5,000  Level Anchorage Center
Tue 11:37:00 PM 60.7610 -150.8393 46° Northeast  Level FlightAware Approximate
Tue 11:38:00 PM 60.8334 -150.6898 47° Northeast  Level FlightAware Approximate
Tue 11:44:00 PM 61.0410 -150.2193 46° Northeast  Level FlightAware Approximate
Tue 11:45:00 PM 61.0831 -150.1228 52° Northeast  Level FlightAware Approximate
Tue 11:46:00 PM 61.1231 -150.0226 39° Northeast  Level FlightAware Approximate
Tue 11:47:00 PM 61.1667 -149.9647 270° West  Level FlightAware Approximate
Tue 11:48:00 PM 61.1667 -149.9833 270° West  Level FlightAware Approximate
Tue 11:49:00 PM 61.1741 -149.9982 270° West  Level Estimated
Tue 11:50:00 PM 61.1741 -149.9982 270° West  Level Estimated
Tue 11:51:00 PM 61.1741 -149.9982 270° West  Level Estimated
Tue 11:52:00 PM 61.1741 -149.9982 270° West  Level Estimated
Tue 11:53:00 PM 61.1741 -149.9982 270° West  Level Estimated
Tue 11:54:00 PM 61.1741 -149.9982 270° West  Level Estimated
Tue 11:55:00 PM 61.1741 -149.9982 270° West  Level Estimated
Tue 11:56:00 PM 61.1741 -149.9982 270° West  Level Estimated
Tue 11:57:00 PM 61.1741 -149.9982 270° West  Level Estimated
Tue 11:58:00 PM 61.1741 -149.9982 270° West  Level Estimated
Tue 11:59:00 PM 61.1741 -149.9982 270° West  Level Estimated
Wed 12:00:00 AM 61.1741 -149.9982 270° West  Level Estimated
Wed 12:01:00 AM 61.1741 -149.9982 270° West  Level Estimated

Login

Don't have an account? Register now (free) for customized features, flight alerts, and more!